sensor_id;sensor_type;location;lat;lon;timestamp;P1;durP1;ratioP1;P2;durP2;ratioP2
10565;SDS011;5331;48.148;16.326;2022-12-29T00:00:02;25.53;;;17.90;;
10565;SDS011;5331;48.148;16.326;2022-12-29T00:02:30;24.50;;;18.23;;
10565;SDS011;5331;48.148;16.326;2022-12-29T00:04:57;26.43;;;18.07;;
10565;SDS011;5331;48.148;16.326;2022-12-29T00:07:25;28.20;;;18.93;;
10565;SDS011;5331;48.148;16.326;2022-12-29T00:09:52;23.97;;;17.33;;
10565;SDS011;5331;48.148;16.326;2022-12-29T00:12:19;21.83;;;17.27;;
10565;SDS011;5331;48.148;16.326;2022-12-29T00:14:46;24.73;;;18.07;;
10565;SDS011;5331;48.148;16.326;2022-12-29T00:17:31;24.70;;;17.80;;
10565;SDS011;5331;48.148;16.326;2022-12-29T00:19:58;21.30;;;16.40;;
10565;SDS011;5331;48.148;16.326;2022-12-29T00:22:44;25.30;;;17.47;;
10565;SDS011;5331;48.148;16.326;2022-12-29T00:25:28;30.50;;;19.43;;
10565;SDS011;5331;48.148;16.326;2022-12-29T00:28:12;27.97;;;19.17;;
10565;SDS011;5331;48.148;16.326;2022-12-29T00:30:58;26.40;;;18.67;;
10565;SDS011;5331;48.148;16.326;2022-12-29T00:33:43;32.80;;;21.07;;
10565;SDS011;5331;48.148;16.326;2022-12-29T00:36:27;29.70;;;20.40;;
10565;SDS011;5331;48.148;16.326;2022-12-29T00:39:00;31.47;;;21.07;;
10565;SDS011;5331;48.148;16.326;2022-12-29T00:41:47;32.33;;;21.67;;
10565;SDS011;5331;48.148;16.326;2022-12-29T00:44:31;30.97;;;21.33;;
10565;SDS011;5331;48.148;16.326;2022-12-29T00:46:58;28.97;;;19.97;;
10565;SDS011;5331;48.148;16.326;2022-12-29T00:49:28;28.60;;;18.70;;
10565;SDS011;5331;48.148;16.326;2022-12-29T00:51:58;27.13;;;19.20;;
10565;SDS011;5331;48.148;16.326;2022-12-29T00:54:28;30.13;;;19.37;;
10565;SDS011;5331;48.148;16.326;2022-12-29T00:56:56;30.63;;;20.23;;
10565;SDS011;5331;48.148;16.326;2022-12-29T00:59:23;27.23;;;18.57;;
10565;SDS011;5331;48.148;16.326;2022-12-29T01:01:51;24.93;;;17.17;;
10565;SDS011;5331;48.148;16.326;2022-12-29T01:04:19;24.00;;;18.03;;
10565;SDS011;5331;48.148;16.326;2022-12-29T01:06:47;24.13;;;17.43;;
10565;SDS011;5331;48.148;16.326;2022-12-29T01:09:14;24.50;;;17.07;;
10565;SDS011;5331;48.148;16.326;2022-12-29T01:12:01;23.17;;;16.60;;
10565;SDS011;5331;48.148;16.326;2022-12-29T01:14:28;24.40;;;17.10;;
10565;SDS011;5331;48.148;16.326;2022-12-29T01:16:55;24.80;;;17.37;;
10565;SDS011;5331;48.148;16.326;2022-12-29T01:19:22;23.40;;;16.03;;
10565;SDS011;5331;48.148;16.326;2022-12-29T01:21:50;23.93;;;15.77;;
10565;SDS011;5331;48.148;16.326;2022-12-29T01:24:18;20.93;;;14.70;;
10565;SDS011;5331;48.148;16.326;2022-12-29T01:26:46;21.03;;;14.50;;
10565;SDS011;5331;48.148;16.326;2022-12-29T01:29:15;20.03;;;13.37;;
10565;SDS011;5331;48.148;16.326;2022-12-29T01:31:42;18.87;;;13.57;;
10565;SDS011;5331;48.148;16.326;2022-12-29T01:34:09;19.13;;;14.03;;
10565;SDS011;5331;48.148;16.326;2022-12-29T01:36:36;18.07;;;13.30;;
10565;SDS011;5331;48.148;16.326;2022-12-29T01:39:03;20.80;;;14.20;;
10565;SDS011;5331;48.148;16.326;2022-12-29T01:41:30;17.57;;;12.23;;
10565;SDS011;5331;48.148;16.326;2022-12-29T01:43:58;18.03;;;12.57;;
10565;SDS011;5331;48.148;16.326;2022-12-29T01:46:29;19.60;;;13.73;;
10565;SDS011;5331;48.148;16.326;2022-12-29T01:49:00;19.90;;;13.90;;
10565;SDS011;5331;48.148;16.326;2022-12-29T01:51:35;18.57;;;13.50;;
10565;SDS011;5331;48.148;16.326;2022-12-29T01:54:05;19.27;;;13.13;;
10565;SDS011;5331;48.148;16.326;2022-12-29T01:56:36;17.10;;;12.80;;
10565;SDS011;5331;48.148;16.326;2022-12-29T01:59:04;16.03;;;12.10;;
10565;SDS011;5331;48.148;16.326;2022-12-29T02:01:36;13.97;;;11.60;;
10565;SDS011;5331;48.148;16.326;2022-12-29T02:04:03;17.33;;;12.20;;
10565;SDS011;5331;48.148;16.326;2022-12-29T02:06:31;17.53;;;12.60;;
10565;SDS011;5331;48.148;16.326;2022-12-29T02:09:03;18.47;;;13.30;;
10565;SDS011;5331;48.148;16.326;2022-12-29T02:11:30;19.37;;;12.93;;
10565;SDS011;5331;48.148;16.326;2022-12-29T02:13:57;16.47;;;12.57;;
10565;SDS011;5331;48.148;16.326;2022-12-29T02:16:34;19.03;;;13.17;;
10565;SDS011;5331;48.148;16.326;2022-12-29T02:19:48;17.70;;;13.43;;
10565;SDS011;5331;48.148;16.326;2022-12-29T02:22:35;19.10;;;12.83;;
10565;SDS011;5331;48.148;16.326;2022-12-29T02:25:31;17.17;;;12.83;;
10565;SDS011;5331;48.148;16.326;2022-12-29T02:28:20;16.07;;;11.43;;
10565;SDS011;5331;48.148;16.326;2022-12-29T02:31:07;16.53;;;12.73;;
10565;SDS011;5331;48.148;16.326;2022-12-29T02:33:48;18.40;;;12.87;;
10565;SDS011;5331;48.148;16.326;2022-12-29T02:36:21;15.67;;;12.20;;
10565;SDS011;5331;48.148;16.326;2022-12-29T02:38:57;18.10;;;12.83;;
10565;SDS011;5331;48.148;16.326;2022-12-29T02:41:30;18.20;;;12.67;;
10565;SDS011;5331;48.148;16.326;2022-12-29T02:44:01;15.23;;;12.17;;
10565;SDS011;5331;48.148;16.326;2022-12-29T02:46:36;21.27;;;13.50;;
10565;SDS011;5331;48.148;16.326;2022-12-29T02:49:09;18.90;;;12.97;;
10565;SDS011;5331;48.148;16.326;2022-12-29T02:51:43;19.57;;;12.90;;
10565;SDS011;5331;48.148;16.326;2022-12-29T02:54:17;15.97;;;13.03;;
10565;SDS011;5331;48.148;16.326;2022-12-29T02:57:02;19.90;;;13.67;;
10565;SDS011;5331;48.148;16.326;2022-12-29T02:59:31;16.10;;;12.10;;
10565;SDS011;5331;48.148;16.326;2022-12-29T03:02:17;15.87;;;12.00;;
10565;SDS011;5331;48.148;16.326;2022-12-29T03:05:09;16.07;;;11.80;;
10565;SDS011;5331;48.148;16.326;2022-12-29T03:07:44;19.33;;;13.73;;
10565;SDS011;5331;48.148;16.326;2022-12-29T03:10:19;18.93;;;12.10;;
10565;SDS011;5331;48.148;16.326;2022-12-29T03:13:00;17.43;;;12.83;;
10565;SDS011;5331;48.148;16.326;2022-12-29T03:15:50;15.90;;;11.67;;
10565;SDS011;5331;48.148;16.326;2022-12-29T03:18:32;16.10;;;11.67;;
10565;SDS011;5331;48.148;16.326;2022-12-29T03:21:08;14.57;;;11.70;;
10565;SDS011;5331;48.148;16.326;2022-12-29T03:23:40;14.23;;;11.33;;
10565;SDS011;5331;48.148;16.326;2022-12-29T03:26:12;18.10;;;13.43;;
10565;SDS011;5331;48.148;16.326;2022-12-29T03:28:44;17.53;;;12.50;;
10565;SDS011;5331;48.148;16.326;2022-12-29T03:31:16;15.67;;;12.27;;
10565;SDS011;5331;48.148;16.326;2022-12-29T03:33:46;18.47;;;12.83;;
10565;SDS011;5331;48.148;16.326;2022-12-29T03:36:16;15.37;;;12.10;;
10565;SDS011;5331;48.148;16.326;2022-12-29T03:38:50;15.20;;;12.13;;
10565;SDS011;5331;48.148;16.326;2022-12-29T03:41:26;17.60;;;12.50;;
10565;SDS011;5331;48.148;16.326;2022-12-29T03:43:56;16.30;;;11.87;;
10565;SDS011;5331;48.148;16.326;2022-12-29T03:46:23;15.43;;;11.97;;
10565;SDS011;5331;48.148;16.326;2022-12-29T03:48:52;15.23;;;12.20;;
10565;SDS011;5331;48.148;16.326;2022-12-29T03:51:19;15.60;;;12.03;;
10565;SDS011;5331;48.148;16.326;2022-12-29T03:53:46;20.93;;;12.97;;
10565;SDS011;5331;48.148;16.326;2022-12-29T03:56:13;15.43;;;11.87;;
10565;SDS011;5331;48.148;16.326;2022-12-29T03:58:40;15.67;;;12.27;;
10565;SDS011;5331;48.148;16.326;2022-12-29T04:01:07;18.47;;;12.87;;
10565;SDS011;5331;48.148;16.326;2022-12-29T04:03:34;17.60;;;12.93;;
10565;SDS011;5331;48.148;16.326;2022-12-29T04:06:02;14.40;;;11.50;;
10565;SDS011;5331;48.148;16.326;2022-12-29T04:08:29;14.47;;;11.53;;
10565;SDS011;5331;48.148;16.326;2022-12-29T04:10:56;16.13;;;11.73;;
10565;SDS011;5331;48.148;16.326;2022-12-29T04:13:23;18.87;;;13.90;;
10565;SDS011;5331;48.148;16.326;2022-12-29T04:15:50;18.47;;;12.77;;
10565;SDS011;5331;48.148;16.326;2022-12-29T04:18:17;18.50;;;12.87;;
10565;SDS011;5331;48.148;16.326;2022-12-29T04:20:44;17.43;;;12.83;;
10565;SDS011;5331;48.148;16.326;2022-12-29T04:23:29;22.43;;;13.90;;
10565;SDS011;5331;48.148;16.326;2022-12-29T04:25:57;19.87;;;13.77;;
10565;SDS011;5331;48.148;16.326;2022-12-29T04:28:24;19.37;;;13.93;;
10565;SDS011;5331;48.148;16.326;2022-12-29T04:30:51;16.50;;;13.80;;
10565;SDS011;5331;48.148;16.326;2022-12-29T04:33:19;19.43;;;14.73;;
10565;SDS011;5331;48.148;16.326;2022-12-29T04:35:46;19.40;;;13.87;;
10565;SDS011;5331;48.148;16.326;2022-12-29T04:38:14;19.93;;;13.50;;
10565;SDS011;5331;48.148;16.326;2022-12-29T04:40:42;16.90;;;13.23;;
10565;SDS011;5331;48.148;16.326;2022-12-29T04:43:10;18.03;;;12.23;;
10565;SDS011;5331;48.148;16.326;2022-12-29T04:45:37;16.70;;;12.90;;
10565;SDS011;5331;48.148;16.326;2022-12-29T04:48:05;17.97;;;13.20;;
10565;SDS011;5331;48.148;16.326;2022-12-29T04:50:32;17.37;;;12.97;;
10565;SDS011;5331;48.148;16.326;2022-12-29T04:52:59;16.23;;;12.07;;
10565;SDS011;5331;48.148;16.326;2022-12-29T04:55:26;15.23;;;11.70;;
10565;SDS011;5331;48.148;16.326;2022-12-29T04:57:54;14.07;;;11.47;;
10565;SDS011;5331;48.148;16.326;2022-12-29T05:00:21;16.63;;;12.23;;
10565;SDS011;5331;48.148;16.326;2022-12-29T05:02:48;16.87;;;12.03;;
10565;SDS011;5331;48.148;16.326;2022-12-29T05:05:15;15.77;;;12.00;;
10565;SDS011;5331;48.148;16.326;2022-12-29T05:07:42;17.10;;;11.80;;
10565;SDS011;5331;48.148;16.326;2022-12-29T05:10:10;17.03;;;11.83;;
10565;SDS011;5331;48.148;16.326;2022-12-29T05:12:37;14.10;;;11.40;;
10565;SDS011;5331;48.148;16.326;2022-12-29T05:15:10;15.70;;;12.43;;
10565;SDS011;5331;48.148;16.326;2022-12-29T05:17:37;20.03;;;13.47;;
10565;SDS011;5331;48.148;16.326;2022-12-29T05:20:05;18.90;;;12.80;;
10565;SDS011;5331;48.148;16.326;2022-12-29T05:22:33;18.03;;;12.57;;
10565;SDS011;5331;48.148;16.326;2022-12-29T05:25:00;20.30;;;13.93;;
10565;SDS011;5331;48.148;16.326;2022-12-29T05:27:27;19.27;;;14.20;;
10565;SDS011;5331;48.148;16.326;2022-12-29T05:29:54;16.47;;;13.03;;
10565;SDS011;5331;48.148;16.326;2022-12-29T05:32:22;17.57;;;13.20;;
10565;SDS011;5331;48.148;16.326;2022-12-29T05:34:49;18.20;;;13.50;;
10565;SDS011;5331;48.148;16.326;2022-12-29T05:37:16;18.73;;;13.23;;
10565;SDS011;5331;48.148;16.326;2022-12-29T05:39:43;19.23;;;13.20;;
10565;SDS011;5331;48.148;16.326;2022-12-29T05:42:10;19.60;;;14.10;;
10565;SDS011;5331;48.148;16.326;2022-12-29T05:44:37;17.43;;;13.03;;
10565;SDS011;5331;48.148;16.326;2022-12-29T05:47:04;16.43;;;12.83;;
10565;SDS011;5331;48.148;16.326;2022-12-29T05:49:32;18.57;;;14.53;;
10565;SDS011;5331;48.148;16.326;2022-12-29T05:51:59;17.70;;;13.93;;
10565;SDS011;5331;48.148;16.326;2022-12-29T05:54:26;16.90;;;12.73;;
10565;SDS011;5331;48.148;16.326;2022-12-29T05:56:53;19.03;;;12.50;;
10565;SDS011;5331;48.148;16.326;2022-12-29T05:59:20;21.80;;;14.30;;
10565;SDS011;5331;48.148;16.326;2022-12-29T06:01:47;17.17;;;13.80;;
10565;SDS011;5331;48.148;16.326;2022-12-29T06:04:14;16.67;;;12.57;;
10565;SDS011;5331;48.148;16.326;2022-12-29T06:06:43;16.70;;;13.07;;
10565;SDS011;5331;48.148;16.326;2022-12-29T06:09:10;20.03;;;13.43;;
10565;SDS011;5331;48.148;16.326;2022-12-29T06:11:37;17.73;;;12.93;;
10565;SDS011;5331;48.148;16.326;2022-12-29T06:14:04;18.03;;;12.77;;
10565;SDS011;5331;48.148;16.326;2022-12-29T06:16:31;19.43;;;13.43;;
10565;SDS011;5331;48.148;16.326;2022-12-29T06:18:58;17.00;;;12.27;;
10565;SDS011;5331;48.148;16.326;2022-12-29T06:21:25;18.53;;;12.37;;
10565;SDS011;5331;48.148;16.326;2022-12-29T06:23:53;15.97;;;11.63;;
10565;SDS011;5331;48.148;16.326;2022-12-29T06:26:20;14.90;;;11.93;;
10565;SDS011;5331;48.148;16.326;2022-12-29T06:28:47;18.67;;;12.17;;
10565;SDS011;5331;48.148;16.326;2022-12-29T06:31:14;19.57;;;13.53;;
10565;SDS011;5331;48.148;16.326;2022-12-29T06:33:41;21.23;;;14.53;;
10565;SDS011;5331;48.148;16.326;2022-12-29T06:36:08;17.97;;;12.70;;
10565;SDS011;5331;48.148;16.326;2022-12-29T06:38:35;21.30;;;14.23;;
10565;SDS011;5331;48.148;16.326;2022-12-29T06:41:03;18.60;;;14.40;;
10565;SDS011;5331;48.148;16.326;2022-12-29T06:43:30;22.50;;;15.10;;
10565;SDS011;5331;48.148;16.326;2022-12-29T06:45:58;18.27;;;13.87;;
10565;SDS011;5331;48.148;16.326;2022-12-29T06:48:26;19.67;;;14.23;;
10565;SDS011;5331;48.148;16.326;2022-12-29T06:50:52;16.63;;;12.40;;
10565;SDS011;5331;48.148;16.326;2022-12-29T06:53:19;21.07;;;15.37;;
10565;SDS011;5331;48.148;16.326;2022-12-29T06:55:46;17.67;;;13.07;;
10565;SDS011;5331;48.148;16.326;2022-12-29T06:58:15;18.93;;;13.10;;
10565;SDS011;5331;48.148;16.326;2022-12-29T07:00:42;17.37;;;12.63;;
10565;SDS011;5331;48.148;16.326;2022-12-29T07:03:09;18.33;;;13.63;;
10565;SDS011;5331;48.148;16.326;2022-12-29T07:05:35;19.77;;;14.83;;
10565;SDS011;5331;48.148;16.326;2022-12-29T07:08:02;19.53;;;14.50;;
10565;SDS011;5331;48.148;16.326;2022-12-29T07:10:30;20.00;;;14.47;;
10565;SDS011;5331;48.148;16.326;2022-12-29T07:12:57;20.60;;;15.20;;
10565;SDS011;5331;48.148;16.326;2022-12-29T07:15:25;21.27;;;14.87;;
10565;SDS011;5331;48.148;16.326;2022-12-29T07:17:52;18.97;;;14.00;;
10565;SDS011;5331;48.148;16.326;2022-12-29T07:20:19;17.90;;;13.90;;
10565;SDS011;5331;48.148;16.326;2022-12-29T07:22:46;20.00;;;14.70;;
10565;SDS011;5331;48.148;16.326;2022-12-29T07:25:13;23.90;;;16.20;;
10565;SDS011;5331;48.148;16.326;2022-12-29T07:27:40;24.47;;;16.30;;
10565;SDS011;5331;48.148;16.326;2022-12-29T07:30:08;22.97;;;15.37;;
10565;SDS011;5331;48.148;16.326;2022-12-29T07:32:37;22.67;;;15.10;;
10565;SDS011;5331;48.148;16.326;2022-12-29T07:35:04;26.23;;;15.23;;
10565;SDS011;5331;48.148;16.326;2022-12-29T07:37:32;23.17;;;15.17;;
10565;SDS011;5331;48.148;16.326;2022-12-29T07:40:00;22.67;;;15.77;;
10565;SDS011;5331;48.148;16.326;2022-12-29T07:42:28;24.13;;;15.60;;
10565;SDS011;5331;48.148;16.326;2022-12-29T07:44:55;29.30;;;17.57;;
10565;SDS011;5331;48.148;16.326;2022-12-29T07:47:22;29.10;;;17.73;;
10565;SDS011;5331;48.148;16.326;2022-12-29T07:49:50;29.10;;;18.17;;
10565;SDS011;5331;48.148;16.326;2022-12-29T07:52:20;26.30;;;17.00;;
10565;SDS011;5331;48.148;16.326;2022-12-29T07:54:47;28.13;;;17.50;;
10565;SDS011;5331;48.148;16.326;2022-12-29T07:57:14;32.27;;;18.53;;
10565;SDS011;5331;48.148;16.326;2022-12-29T07:59:41;34.17;;;19.10;;
10565;SDS011;5331;48.148;16.326;2022-12-29T08:02:09;30.47;;;19.77;;
10565;SDS011;5331;48.148;16.326;2022-12-29T08:04:36;35.83;;;20.30;;
10565;SDS011;5331;48.148;16.326;2022-12-29T08:07:05;34.10;;;20.20;;
10565;SDS011;5331;48.148;16.326;2022-12-29T08:09:32;37.10;;;20.57;;
10565;SDS011;5331;48.148;16.326;2022-12-29T08:11:59;37.30;;;19.87;;
10565;SDS011;5331;48.148;16.326;2022-12-29T08:14:26;41.13;;;21.37;;
10565;SDS011;5331;48.148;16.326;2022-12-29T08:16:53;45.17;;;22.13;;
10565;SDS011;5331;48.148;16.326;2022-12-29T08:19:20;38.03;;;20.53;;
10565;SDS011;5331;48.148;16.326;2022-12-29T08:21:49;34.07;;;19.70;;
10565;SDS011;5331;48.148;16.326;2022-12-29T08:24:18;35.37;;;20.43;;
10565;SDS011;5331;48.148;16.326;2022-12-29T08:26:45;41.43;;;20.03;;
10565;SDS011;5331;48.148;16.326;2022-12-29T08:29:12;37.37;;;21.53;;
10565;SDS011;5331;48.148;16.326;2022-12-29T08:31:39;36.37;;;20.70;;
10565;SDS011;5331;48.148;16.326;2022-12-29T08:34:06;50.70;;;21.93;;
10565;SDS011;5331;48.148;16.326;2022-12-29T08:36:33;42.67;;;21.63;;
10565;SDS011;5331;48.148;16.326;2022-12-29T08:39:00;47.47;;;21.70;;
10565;SDS011;5331;48.148;16.326;2022-12-29T08:41:30;44.10;;;21.93;;
10565;SDS011;5331;48.148;16.326;2022-12-29T08:43:57;38.77;;;21.70;;
10565;SDS011;5331;48.148;16.326;2022-12-29T08:46:24;42.03;;;20.70;;
10565;SDS011;5331;48.148;16.326;2022-12-29T08:48:51;42.93;;;20.27;;
10565;SDS011;5331;48.148;16.326;2022-12-29T08:51:18;44.13;;;20.83;;
10565;SDS011;5331;48.148;16.326;2022-12-29T08:53:45;35.47;;;20.10;;
10565;SDS011;5331;48.148;16.326;2022-12-29T08:56:12;37.37;;;21.20;;
10565;SDS011;5331;48.148;16.326;2022-12-29T08:58:42;37.37;;;20.90;;
10565;SDS011;5331;48.148;16.326;2022-12-29T09:01:12;39.63;;;21.23;;
10565;SDS011;5331;48.148;16.326;2022-12-29T09:03:39;45.07;;;22.17;;
10565;SDS011;5331;48.148;16.326;2022-12-29T09:06:09;39.37;;;21.73;;
10565;SDS011;5331;48.148;16.326;2022-12-29T09:08:50;40.13;;;21.20;;
10565;SDS011;5331;48.148;16.326;2022-12-29T09:11:27;39.00;;;22.00;;
10565;SDS011;5331;48.148;16.326;2022-12-29T09:16:41;36.87;;;21.97;;
10565;SDS011;5331;48.148;16.326;2022-12-29T09:19:25;33.87;;;19.97;;
10565;SDS011;5331;48.148;16.326;2022-12-29T09:21:52;32.30;;;19.77;;
10565;SDS011;5331;48.148;16.326;2022-12-29T09:24:19;37.50;;;19.90;;
10565;SDS011;5331;48.148;16.326;2022-12-29T09:26:46;30.30;;;19.27;;
10565;SDS011;5331;48.148;16.326;2022-12-29T09:29:15;41.43;;;20.90;;
10565;SDS011;5331;48.148;16.326;2022-12-29T09:31:42;37.97;;;20.77;;
10565;SDS011;5331;48.148;16.326;2022-12-29T09:34:09;34.43;;;20.43;;
10565;SDS011;5331;48.148;16.326;2022-12-29T09:36:36;32.30;;;20.70;;
10565;SDS011;5331;48.148;16.326;2022-12-29T09:39:02;36.87;;;19.83;;
10565;SDS011;5331;48.148;16.326;2022-12-29T09:41:31;38.40;;;20.90;;
10565;SDS011;5331;48.148;16.326;2022-12-29T09:44:07;35.43;;;20.40;;
10565;SDS011;5331;48.148;16.326;2022-12-29T09:46:41;35.77;;;20.43;;
10565;SDS011;5331;48.148;16.326;2022-12-29T09:49:15;36.97;;;20.80;;
10565;SDS011;5331;48.148;16.326;2022-12-29T09:51:48;37.93;;;20.83;;
10565;SDS011;5331;48.148;16.326;2022-12-29T09:54:21;37.87;;;20.70;;
10565;SDS011;5331;48.148;16.326;2022-12-29T09:57:03;35.23;;;19.77;;
10565;SDS011;5331;48.148;16.326;2022-12-29T09:59:35;50.63;;;21.87;;
10565;SDS011;5331;48.148;16.326;2022-12-29T10:02:12;40.17;;;21.37;;
10565;SDS011;5331;48.148;16.326;2022-12-29T10:04:46;47.50;;;22.37;;
10565;SDS011;5331;48.148;16.326;2022-12-29T10:07:14;61.73;;;21.87;;
10565;SDS011;5331;48.148;16.326;2022-12-29T10:10:03;47.60;;;22.73;;
10565;SDS011;5331;48.148;16.326;2022-12-29T10:12:56;42.53;;;23.53;;
10565;SDS011;5331;48.148;16.326;2022-12-29T10:15:35;44.07;;;22.57;;
10565;SDS011;5331;48.148;16.326;2022-12-29T10:18:25;52.97;;;23.30;;
10565;SDS011;5331;48.148;16.326;2022-12-29T10:21:12;66.40;;;24.57;;
10565;SDS011;5331;48.148;16.326;2022-12-29T10:23:50;50.90;;;24.77;;
10565;SDS011;5331;48.148;16.326;2022-12-29T10:26:18;51.10;;;25.50;;
10565;SDS011;5331;48.148;16.326;2022-12-29T10:28:49;64.10;;;26.00;;
10565;SDS011;5331;48.148;16.326;2022-12-29T10:31:20;56.53;;;25.67;;
10565;SDS011;5331;48.148;16.326;2022-12-29T10:33:51;75.67;;;26.23;;
10565;SDS011;5331;48.148;16.326;2022-12-29T10:36:24;63.97;;;26.53;;
10565;SDS011;5331;48.148;16.326;2022-12-29T10:39:00;85.03;;;26.80;;
10565;SDS011;5331;48.148;16.326;2022-12-29T10:41:33;96.47;;;27.60;;
10565;SDS011;5331;48.148;16.326;2022-12-29T10:44:04;54.03;;;27.87;;
10565;SDS011;5331;48.148;16.326;2022-12-29T10:46:35;55.27;;;26.53;;
10565;SDS011;5331;48.148;16.326;2022-12-29T10:49:05;65.70;;;26.73;;
10565;SDS011;5331;48.148;16.326;2022-12-29T10:51:37;56.63;;;27.87;;
10565;SDS011;5331;48.148;16.326;2022-12-29T10:54:10;58.03;;;28.37;;
10565;SDS011;5331;48.148;16.326;2022-12-29T10:56:42;73.73;;;27.80;;
10565;SDS011;5331;48.148;16.326;2022-12-29T10:59:13;58.33;;;27.93;;
10565;SDS011;5331;48.148;16.326;2022-12-29T11:01:48;54.30;;;27.93;;
10565;SDS011;5331;48.148;16.326;2022-12-29T11:07:16;56.13;;;27.07;;
10565;SDS011;5331;48.148;16.326;2022-12-29T11:09:44;60.90;;;27.50;;
10565;SDS011;5331;48.148;16.326;2022-12-29T11:12:20;58.57;;;26.53;;
10565;SDS011;5331;48.148;16.326;2022-12-29T11:14:59;62.27;;;26.80;;
10565;SDS011;5331;48.148;16.326;2022-12-29T11:17:40;98.23;;;28.23;;
10565;SDS011;5331;48.148;16.326;2022-12-29T11:20:24;86.00;;;27.03;;
10565;SDS011;5331;48.148;16.326;2022-12-29T11:22:55;71.63;;;26.83;;
10565;SDS011;5331;48.148;16.326;2022-12-29T11:25:22;60.17;;;26.67;;
10565;SDS011;5331;48.148;16.326;2022-12-29T11:27:58;58.67;;;26.83;;
10565;SDS011;5331;48.148;16.326;2022-12-29T11:30:27;64.93;;;27.83;;
10565;SDS011;5331;48.148;16.326;2022-12-29T11:32:57;59.17;;;26.90;;
10565;SDS011;5331;48.148;16.326;2022-12-29T11:35:34;65.37;;;28.23;;
10565;SDS011;5331;48.148;16.326;2022-12-29T11:38:04;53.13;;;26.70;;
10565;SDS011;5331;48.148;16.326;2022-12-29T11:40:32;76.17;;;28.00;;
10565;SDS011;5331;48.148;16.326;2022-12-29T11:43:05;63.90;;;27.63;;
10565;SDS011;5331;48.148;16.326;2022-12-29T11:45:37;55.93;;;26.60;;
10565;SDS011;5331;48.148;16.326;2022-12-29T11:48:13;49.70;;;25.53;;
10565;SDS011;5331;48.148;16.326;2022-12-29T11:50:52;78.50;;;27.83;;
10565;SDS011;5331;48.148;16.326;2022-12-29T11:53:23;83.50;;;29.73;;
10565;SDS011;5331;48.148;16.326;2022-12-29T11:55:53;69.93;;;30.00;;
10565;SDS011;5331;48.148;16.326;2022-12-29T11:58:27;62.00;;;28.33;;
10565;SDS011;5331;48.148;16.326;2022-12-29T12:00:57;61.13;;;28.63;;
10565;SDS011;5331;48.148;16.326;2022-12-29T12:03:29;53.07;;;26.87;;
10565;SDS011;5331;48.148;16.326;2022-12-29T12:06:00;63.50;;;27.53;;
10565;SDS011;5331;48.148;16.326;2022-12-29T12:08:31;69.37;;;28.87;;
10565;SDS011;5331;48.148;16.326;2022-12-29T12:11:04;55.30;;;27.60;;
10565;SDS011;5331;48.148;16.326;2022-12-29T12:13:37;52.37;;;27.50;;
10565;SDS011;5331;48.148;16.326;2022-12-29T12:16:09;55.37;;;28.27;;
10565;SDS011;5331;48.148;16.326;2022-12-29T12:18:41;59.00;;;27.07;;
10565;SDS011;5331;48.148;16.326;2022-12-29T12:21:15;62.73;;;28.70;;
10565;SDS011;5331;48.148;16.326;2022-12-29T12:23:56;64.73;;;28.90;;
10565;SDS011;5331;48.148;16.326;2022-12-29T12:26:36;65.73;;;28.97;;
10565;SDS011;5331;48.148;16.326;2022-12-29T12:29:09;62.30;;;30.27;;
10565;SDS011;5331;48.148;16.326;2022-12-29T12:31:43;70.80;;;30.53;;
10565;SDS011;5331;48.148;16.326;2022-12-29T12:34:14;76.37;;;32.33;;
10565;SDS011;5331;48.148;16.326;2022-12-29T12:36:59;68.80;;;31.17;;
10565;SDS011;5331;48.148;16.326;2022-12-29T12:39:43;57.87;;;28.67;;
10565;SDS011;5331;48.148;16.326;2022-12-29T12:42:26;61.60;;;29.57;;
10565;SDS011;5331;48.148;16.326;2022-12-29T12:45:08;62.77;;;29.40;;
10565;SDS011;5331;48.148;16.326;2022-12-29T12:48:00;61.83;;;27.33;;
10565;SDS011;5331;48.148;16.326;2022-12-29T12:50:42;56.97;;;29.40;;
10565;SDS011;5331;48.148;16.326;2022-12-29T12:53:32;54.03;;;27.90;;
10565;SDS011;5331;48.148;16.326;2022-12-29T12:56:10;56.60;;;28.10;;
10565;SDS011;5331;48.148;16.326;2022-12-29T12:58:53;54.63;;;27.80;;
10565;SDS011;5331;48.148;16.326;2022-12-29T13:01:32;58.50;;;29.27;;
10565;SDS011;5331;48.148;16.326;2022-12-29T13:04:15;50.17;;;26.23;;
10565;SDS011;5331;48.148;16.326;2022-12-29T13:07:02;54.27;;;27.47;;
10565;SDS011;5331;48.148;16.326;2022-12-29T13:09:48;54.60;;;28.27;;
10565;SDS011;5331;48.148;16.326;2022-12-29T13:12:29;48.87;;;26.50;;
10565;SDS011;5331;48.148;16.326;2022-12-29T13:15:10;53.53;;;28.20;;
10565;SDS011;5331;48.148;16.326;2022-12-29T13:17:46;48.67;;;28.17;;
10565;SDS011;5331;48.148;16.326;2022-12-29T13:20:22;49.70;;;27.33;;
10565;SDS011;5331;48.148;16.326;2022-12-29T13:22:56;52.83;;;28.17;;
10565;SDS011;5331;48.148;16.326;2022-12-29T13:25:31;50.47;;;26.93;;
10565;SDS011;5331;48.148;16.326;2022-12-29T13:28:03;49.77;;;27.07;;
10565;SDS011;5331;48.148;16.326;2022-12-29T13:30:38;48.33;;;26.20;;
10565;SDS011;5331;48.148;16.326;2022-12-29T13:33:14;48.90;;;25.80;;
10565;SDS011;5331;48.148;16.326;2022-12-29T13:35:52;48.43;;;27.23;;
10565;SDS011;5331;48.148;16.326;2022-12-29T13:38:24;47.80;;;26.27;;
10565;SDS011;5331;48.148;16.326;2022-12-29T13:40:59;46.47;;;26.40;;
10565;SDS011;5331;48.148;16.326;2022-12-29T13:43:31;45.43;;;25.53;;
10565;SDS011;5331;48.148;16.326;2022-12-29T13:46:01;49.03;;;26.07;;
10565;SDS011;5331;48.148;16.326;2022-12-29T13:48:37;46.07;;;25.77;;
10565;SDS011;5331;48.148;16.326;2022-12-29T13:51:07;46.87;;;26.33;;
10565;SDS011;5331;48.148;16.326;2022-12-29T14:04:13;47.73;;;25.97;;
10565;SDS011;5331;48.148;16.326;2022-12-29T14:06:41;45.97;;;25.80;;
10565;SDS011;5331;48.148;16.326;2022-12-29T14:09:28;46.77;;;25.60;;
10565;SDS011;5331;48.148;16.326;2022-12-29T14:15:14;45.30;;;25.70;;
10565;SDS011;5331;48.148;16.326;2022-12-29T14:17:59;46.67;;;25.40;;
10565;SDS011;5331;48.148;16.326;2022-12-29T14:20:32;46.03;;;26.30;;
10565;SDS011;5331;48.148;16.326;2022-12-29T14:23:00;44.77;;;25.30;;
10565;SDS011;5331;48.148;16.326;2022-12-29T14:25:57;47.50;;;25.50;;
10565;SDS011;5331;48.148;16.326;2022-12-29T14:28:37;41.53;;;24.17;;
10565;SDS011;5331;48.148;16.326;2022-12-29T14:31:07;42.40;;;24.40;;
10565;SDS011;5331;48.148;16.326;2022-12-29T14:36:58;43.20;;;24.43;;
10565;SDS011;5331;48.148;16.326;2022-12-29T14:39:31;45.83;;;26.63;;
10565;SDS011;5331;48.148;16.326;2022-12-29T14:42:04;46.33;;;25.53;;
10565;SDS011;5331;48.148;16.326;2022-12-29T14:44:32;50.90;;;28.90;;
10565;SDS011;5331;48.148;16.326;2022-12-29T14:47:01;46.43;;;26.33;;
10565;SDS011;5331;48.148;16.326;2022-12-29T14:49:33;43.93;;;24.77;;
10565;SDS011;5331;48.148;16.326;2022-12-29T14:52:13;46.17;;;25.97;;
10565;SDS011;5331;48.148;16.326;2022-12-29T14:54:48;42.07;;;25.53;;
10565;SDS011;5331;48.148;16.326;2022-12-29T14:57:21;46.60;;;26.60;;
10565;SDS011;5331;48.148;16.326;2022-12-29T14:59:56;47.67;;;26.30;;
10565;SDS011;5331;48.148;16.326;2022-12-29T15:02:31;45.73;;;24.87;;
10565;SDS011;5331;48.148;16.326;2022-12-29T15:05:02;41.47;;;24.00;;
10565;SDS011;5331;48.148;16.326;2022-12-29T15:07:32;43.20;;;24.37;;
10565;SDS011;5331;48.148;16.326;2022-12-29T15:10:03;47.87;;;24.50;;